Terminal Aerodrome Forecast
Issued by NWS

Home | Current Version | Previous Version | Text Only | Print | Product List | Glossary On
Versions: 1 2 3 4 5 6 7 8 9 10 11 12 13 14 15 16 17
000
FTUS45 KGGW 030000 AAA
TAFSDY
TAF AMD
KSDY 030053Z 0301/0324 35018G27KT P6SM SCT018 BKN030
     FM030600 36009KT P6SM BKN020
     FM031800 06007KT P6SM SCT050
      AMD LTD TO CLD VIS AND WIND=

USA.gov is the U.S. government's official web portal to all federal, state and local government web resources and services.